Time;durP1;ratioP1;P1;durP2;ratioP2;P2;SDS_P1;SDS_P2;PMS_P1;PMS_P2;Temp;Humidity;BMP_temperature;BMP_pressure;BME280_temperature;BME280_humidity;BME280_pressure;Samples;Min_cycle;Max_cycle;Signal;HPM_P1;HPM_P2
2022/03/02 00:00:41;;;;;;;84.10;42.50;;;;;;;-6.62;62.19;100808.97;432608;1271;141560;-59
2022/03/02 00:10:49;;;;;;;82.70;45.00;;;;;;;-6.83;62.85;100802.83;444463;1271;143584;-59
2022/03/02 00:20:56;;;;;;;91.40;48.40;;;;;;;-7.00;63.10;100802.36;440782;1271;142208;-60
2022/03/02 00:31:02;;;;;;;102.60;46.50;;;;;;;-7.10;63.64;100800.41;446262;1271;143420;-64
2022/03/02 00:41:08;;;;;;;90.70;49.40;;;;;;;-7.01;63.94;100792.46;446779;1273;143090;-64
2022/03/02 00:51:14;;;;;;;87.70;46.50;;;;;;;-6.89;64.00;100791.94;446386;1271;144637;-63
2022/03/02 01:01:20;;;;;;;95.20;52.00;;;;;;;-6.74;63.89;100780.40;438033;1271;142886;-63
2022/03/02 01:11:26;;;;;;;89.90;50.00;;;;;;;-6.76;63.91;100769.45;430884;1273;144271;-63
2022/03/02 01:21:32;;;;;;;94.10;49.40;;;;;;;-6.82;64.06;100753.45;436102;1271;145174;-65
2022/03/02 01:31:38;;;;;;;91.30;51.10;;;;;;;-6.84;64.15;100733.33;429626;1273;141855;-62
2022/03/02 01:41:45;;;;;;;94.70;51.70;;;;;;;-6.96;64.14;100728.77;446796;1271;144738;-64
2022/03/02 01:51:51;;;;;;;99.50;53.00;;;;;;;-6.89;64.13;100723.64;446019;1271;142080;-63
2022/03/02 02:01:57;;;;;;;87.30;49.40;;;;;;;-6.96;64.04;100719.56;447136;1270;142642;-65
2022/03/02 02:12:04;;;;;;;80.90;47.20;;;;;;;-7.09;64.28;100709.52;445475;1271;145915;-65
2022/03/02 02:22:10;;;;;;;81.70;48.40;;;;;;;-7.11;64.34;100689.74;432837;1271;142754;-63
2022/03/02 02:32:16;;;;;;;77.20;43.90;;;;;;;-7.18;64.58;100684.10;446633;1272;173175;-63
2022/03/02 02:42:22;;;;;;;90.70;50.70;;;;;;;-7.21;64.65;100675.85;445999;1272;143515;-64
2022/03/02 02:52:27;;;;;;;80.50;41.80;;;;;;;-7.22;64.62;100666.13;446847;1272;143201;-63
2022/03/02 03:02:33;;;;;;;75.60;41.30;;;;;;;-7.20;64.83;100659.20;429874;1272;142626;-63
2022/03/02 03:12:42;;;;;;;73.00;41.50;;;;;;;-7.33;64.82;100659.40;440571;1271;142824;-63
2022/03/02 03:22:49;;;;;;;80.30;42.90;;;;;;;-7.34;64.74;100649.31;447130;1271;142301;-63
2022/03/02 03:32:55;;;;;;;78.60;43.10;;;;;;;-7.33;64.94;100639.64;446820;1271;142905;-63
2022/03/02 03:43:01;;;;;;;66.00;42.00;;;;;;;-7.38;64.99;100639.86;446122;1272;142471;-64
2022/03/02 03:53:08;;;;;;;70.60;39.00;;;;;;;-7.45;64.92;100636.80;447117;1270;142096;-64
2022/03/02 04:03:14;;;;;;;66.10;37.90;;;;;;;-7.44;64.85;100632.73;446347;1271;142133;-64
2022/03/02 04:13:20;;;;;;;69.50;37.40;;;;;;;-7.49;64.92;100622.73;447085;1271;142221;-66
2022/03/02 04:23:26;;;;;;;75.80;41.60;;;;;;;-7.52;65.06;100613.81;447122;1271;142950;-64
2022/03/02 04:33:35;;;;;;;87.60;48.80;;;;;;;-7.58;65.17;100608.89;446371;1271;194632;-64
2022/03/02 04:43:43;;;;;;;91.60;46.20;;;;;;;-7.66;65.29;100608.17;447156;1271;142844;-64
2022/03/02 04:53:50;;;;;;;93.90;48.40;;;;;;;-7.76;65.37;100599.23;444862;1271;144258;-63
2022/03/02 05:03:56;;;;;;;89.70;46.40;;;;;;;-7.90;65.54;100604.64;443289;1271;143955;-64
2022/03/02 05:14:02;;;;;;;101.50;53.30;;;;;;;-8.01;65.71;100598.39;433783;1271;142914;-63
2022/03/02 05:24:09;;;;;;;113.40;57.10;;;;;;;-8.05;65.77;100586.88;445927;1272;153072;-64
2022/03/02 05:34:14;;;;;;;119.10;66.00;;;;;;;-7.87;65.91;100583.80;446622;1270;143252;-63
2022/03/02 05:44:20;;;;;;;132.00;69.80;;;;;;;-7.66;65.78;100585.73;446904;1271;142258;-63
2022/03/02 05:54:27;;;;;;;144.50;74.20;;;;;;;-7.49;65.88;100582.59;446173;1271;142889;-64
2022/03/02 06:04:32;;;;;;;170.70;89.20;;;;;;;-7.14;65.87;100581.92;446798;1272;143529;-64
2022/03/02 06:14:37;;;;;;;;;;;;;;;-6.56;66.22;100583.91;446860;1272;142090;-64
2022/03/02 06:24:44;;;;;;;189.20;94.90;;;;;;;-4.19;65.78;100578.73;446476;1271;129727;-64
2022/03/02 06:34:49;;;;;;;154.70;87.50;;;;;;;1.47;61.78;100571.92;447125;1271;142129;-63
2022/03/02 06:45:01;;;;;;;152.70;94.10;;;;;;;5.82;55.72;100551.55;447022;1272;141985;-63
2022/03/02 06:55:10;;;;;;;142.80;88.90;;;;;;;9.57;50.54;100540.89;447167;1271;142680;-64
2022/03/02 07:05:18;;;;;;;121.40;86.50;;;;;;;13.08;45.94;100532.13;447141;1270;142292;-64
2022/03/02 07:15:25;;;;;;;126.90;90.40;;;;;;;16.72;41.86;100512.15;446233;1271;142537;-63
2022/03/02 07:25:35;;;;;;;100.90;79.60;;;;;;;19.40;37.88;100495.47;444659;1272;145296;-61
2022/03/02 07:35:41;;;;;;;90.70;66.60;;;;;;;21.19;34.73;100487.20;447000;1271;142267;-62
2022/03/02 07:45:47;;;;;;;87.40;63.70;;;;;;;23.86;32.55;100468.31;446407;1271;143642;-62
2022/03/02 07:55:54;;;;;;;87.40;65.40;;;;;;;25.33;29.80;100460.50;447052;1271;142175;-63
2022/03/02 08:06:01;;;;;;;85.30;68.00;;;;;;;26.13;28.08;100461.95;436141;1271;141601;-63
2022/03/02 08:16:07;;;;;;;74.20;59.20;;;;;;;27.16;27.07;100445.13;447171;1271;143789;-62
2022/03/02 08:26:18;;;;;;;73.80;56.10;;;;;;;28.32;25.82;100428.09;447095;1271;142930;-66
2022/03/02 08:36:33;;;;;;;47.40;36.50;;;;;;;28.54;24.48;100433.77;439529;1271;142104;-71
2022/03/02 08:46:39;;;;;;;9.40;7.70;;;;;;;28.37;22.64;100430.08;447158;1271;143017;-70
2022/03/02 08:56:46;;;;;;;6.50;5.40;;;;;;;27.72;21.11;100430.98;447210;1271;141896;-69
2022/03/02 09:06:53;;;;;;;6.50;4.60;;;;;;;26.91;20.34;100425.50;446402;1271;141707;-70
2022/03/02 09:16:59;;;;;;;7.20;5.70;;;;;;;26.01;19.44;100417.29;447159;1271;142753;-69
2022/03/02 09:27:08;;;;;;;8.00;5.50;;;;;;;25.05;19.49;100408.90;445073;1271;163221;-69
2022/03/02 09:37:16;;;;;;;10.50;5.70;;;;;;;17.51;20.85;100405.27;442742;1271;143285;-68
2022/03/02 09:47:31;;;;;;;9.50;6.50;;;;;;;12.18;23.17;100408.79;442341;1271;142331;-76
2022/03/02 09:57:46;;;;;;;10.80;6.70;;;;;;;9.31;25.41;100414.23;437749;1271;141644;-70
2022/03/02 10:07:59;;;;;;;11.30;6.70;;;;;;;7.85;26.79;100412.00;446874;1273;140958;-69
2022/03/02 10:18:07;;;;;;;13.00;7.50;;;;;;;6.76;28.21;100401.73;446329;1271;142032;-71
2022/03/02 10:28:25;;;;;;;10.50;6.50;;;;;;;6.09;29.08;100384.79;447163;1271;142420;-65
2022/03/02 10:38:48;;;;;;;11.90;7.40;;;;;;;5.28;30.05;100378.41;447136;1271;141526;-67
2022/03/02 10:49:07;;;;;;;11.90;6.70;;;;;;;4.96;30.88;100367.70;444914;1271;142515;-71
2022/03/02 10:59:16;;;;;;;10.90;7.90;;;;;;;4.63;31.08;100358.71;447187;1271;141001;-66
2022/03/02 11:09:28;;;;;;;8.90;6.50;;;;;;;4.40;31.78;100347.38;446301;1271;142014;-66
2022/03/02 11:19:43;;;;;;;10.70;7.80;;;;;;;4.24;31.73;100332.35;447158;1271;141753;-72
2022/03/02 11:29:49;;;;;;;12.20;6.70;;;;;;;4.18;31.59;100328.34;447073;1271;142139;-70
2022/03/02 11:39:55;;;;;;;13.70;8.40;;;;;;;4.03;32.16;100318.84;446218;1271;140970;-66
2022/03/02 11:50:01;;;;;;;10.90;7.20;;;;;;;3.98;32.36;100304.58;447162;1271;142806;-73
2022/03/02 12:00:12;;;;;;;13.60;6.50;;;;;;;3.91;32.01;100290.01;443992;1271;155996;-69
2022/03/02 12:10:22;;;;;;;9.80;6.80;;;;;;;3.99;31.86;100275.95;447087;1271;140949;-74
2022/03/02 12:20:28;;;;;;;20.20;8.40;;;;;;;4.02;31.96;100261.86;446842;1273;141498;-63
2022/03/02 12:30:36;;;;;;;12.50;7.70;;;;;;;4.11;31.95;100249.66;446143;1271;141508;-68
2022/03/02 12:40:41;;;;;;;;;;;;;;;4.09;32.27;100243.31;431848;1271;145532;-68
2022/03/02 12:50:48;;;;;;;11.50;8.10;;;;;;;3.90;32.62;100233.40;447273;1271;127549;-69
2022/03/02 13:00:54;;;;;;;15.80;10.10;;;;;;;3.89;32.20;100217.84;446283;1271;141550;-62
2022/03/02 13:11:00;;;;;;;11.80;7.90;;;;;;;3.88;32.63;100210.09;430795;1273;141021;-61
2022/03/02 13:21:24;;;;;;;15.90;7.60;;;;;;;3.90;32.75;100200.67;444523;1271;163881;-64
2022/03/02 13:31:30;;;;;;;13.00;7.60;;;;;;;3.88;32.53;100197.42;434441;1271;141779;-63
2022/03/02 13:41:45;;;;;;;18.10;8.90;;;;;;;3.82;33.22;100184.96;446931;1271;142797;-60
2022/03/02 13:51:51;;;;;;;15.40;8.20;;;;;;;3.76;34.25;100167.80;445476;1271;141400;-62
2022/03/02 14:01:57;;;;;;;15.60;6.50;;;;;;;3.69;34.59;100168.14;436140;1271;140818;-61
2022/03/02 14:12:07;;;;;;;15.70;9.20;;;;;;;3.57;34.08;100163.43;442784;1273;141382;-51
2022/03/02 14:22:15;;;;;;;11.70;8.30;;;;;;;3.43;35.20;100153.23;439815;1271;213094;-59
2022/03/02 14:32:33;;;;;;;10.80;7.70;;;;;;;3.31;35.94;100151.27;442381;1272;307568;-61
2022/03/02 14:42:41;;;;;;;13.40;6.30;;;;;;;3.22;35.91;100140.61;446470;1271;141923;-58
2022/03/02 14:52:55;;;;;;;10.50;7.00;;;;;;;3.11;35.84;100129.80;447183;1271;141967;-59
2022/03/02 15:03:14;;;;;;;11.50;6.20;;;;;;;2.96;35.38;100126.86;447159;1271;141983;-55
2022/03/02 15:23:52;;;;;;;7.70;4.90;;;;;;;2.62;36.45;100120.02;442490;1271;142119;-59
2022/03/02 15:33:58;;;;;;;9.60;5.80;;;;;;;2.38;35.81;100110.37;446057;1271;182738;-60
2022/03/02 15:44:11;;;;;;;11.60;6.10;;;;;;;2.14;36.59;100107.58;447041;1271;141845;-57
2022/03/02 15:54:17;;;;;;;11.50;7.20;;;;;;;1.91;37.54;100106.83;446367;1271;141395;-59
2022/03/02 16:04:23;;;;;;;8.50;6.20;;;;;;;1.68;38.27;100108.66;446716;1272;141894;-65
2022/03/02 16:14:28;;;;;;;10.90;6.80;;;;;;;1.49;39.22;100101.24;447083;1271;141713;-67
2022/03/02 16:24:36;;;;;;;15.50;7.50;;;;;;;1.19;40.23;100102.63;446285;1271;141081;-69
2022/03/02 16:34:40;;;;;;;;;;;;;;;0.88;40.86;100094.17;446622;1271;141116;-71
2022/03/02 16:44:46;;;;;;;16.40;11.50;;;;;;;0.52;41.62;100094.02;447295;1271;127600;-67
2022/03/02 16:54:53;;;;;;;31.40;12.00;;;;;;;0.21;42.44;100092.20;446241;1271;141043;-69
2022/03/02 17:05:00;;;;;;;18.80;10.30;;;;;;;-0.21;43.30;100096.51;430459;1273;141507;-69
2022/03/02 17:15:08;;;;;;;29.40;11.90;;;;;;;-0.59;44.44;100088.30;429110;1273;142800;-65
2022/03/02 17:25:14;;;;;;;19.40;10.40;;;;;;;-0.98;45.70;100083.52;446968;1271;141058;-67
2022/03/02 17:35:20;;;;;;;26.90;13.20;;;;;;;-1.34;46.53;100078.64;447058;1271;141868;-65
2022/03/02 17:45:26;;;;;;;30.60;12.50;;;;;;;-1.66;47.29;100073.88;446412;1271;161855;-69
2022/03/02 17:55:32;;;;;;;45.10;17.20;;;;;;;-1.93;48.03;100076.93;447083;1271;143623;-66
2022/03/02 18:05:38;;;;;;;39.00;19.20;;;;;;;-2.21;48.85;100067.95;447190;1271;141531;-69
2022/03/02 18:15:44;;;;;;;49.20;20.90;;;;;;;-2.46;49.62;100059.12;446166;1271;142495;-69
2022/03/02 18:25:50;;;;;;;59.50;21.30;;;;;;;-2.68;50.38;100060.05;446934;1272;142056;-68
2022/03/02 18:35:58;;;;;;;44.30;19.30;;;;;;;-2.92;51.36;100057.35;447178;1271;197530;-66
2022/03/02 18:46:05;;;;;;;46.00;20.70;;;;;;;-3.13;52.01;100068.31;444009;1271;141827;-69
2022/03/02 18:56:11;;;;;;;55.40;25.00;;;;;;;-3.33;52.92;100068.65;447030;1272;151505;-67
2022/03/02 19:06:17;;;;;;;87.40;36.40;;;;;;;-3.48;53.34;100062.30;440539;1271;141846;-59
2022/03/02 19:16:23;;;;;;;71.50;30.40;;;;;;;-3.64;53.82;100058.52;447303;1271;142178;-72
2022/03/02 19:26:31;;;;;;;68.70;30.90;;;;;;;-3.79;54.29;100054.73;433056;1271;141566;-69
2022/03/02 19:36:38;;;;;;;64.40;28.80;;;;;;;-3.95;54.87;100049.55;445763;1271;142056;-66
2022/03/02 19:46:47;;;;;;;65.50;29.00;;;;;;;-4.08;55.63;100044.22;447171;1271;141895;-64
2022/03/02 19:56:54;;;;;;;62.20;30.90;;;;;;;-4.14;56.38;100044.02;447024;1271;142054;-64
2022/03/02 20:07:01;;;;;;;87.20;35.90;;;;;;;-4.14;56.63;100041.11;446328;1271;141887;-64
2022/03/02 20:17:08;;;;;;;77.40;35.50;;;;;;;-4.07;56.88;100031.90;443178;1271;141471;-64
2022/03/02 20:27:14;;;;;;;107.90;51.00;;;;;;;-4.05;57.13;100021.13;446302;1271;142167;-65
2022/03/02 20:37:20;;;;;;;99.60;46.10;;;;;;;-4.17;57.20;100018.19;440026;1271;141636;-65
2022/03/02 20:47:26;;;;;;;87.20;43.10;;;;;;;-4.31;57.63;100009.41;439880;1271;141628;-63
2022/03/02 20:57:32;;;;;;;90.80;45.10;;;;;;;-4.47;58.09;100005.27;444296;1271;142198;-63
2022/03/02 21:07:38;;;;;;;80.40;38.60;;;;;;;-4.64;58.54;100008.61;442915;1271;142167;-65
2022/03/02 21:17:44;;;;;;;73.00;38.80;;;;;;;-4.81;59.34;100009.54;433651;1271;141990;-63
2022/03/02 21:27:49;;;;;;;;;;;;;;;-4.96;59.76;99998.86;435631;1271;141724;-65
2022/03/02 21:37:55;;;;;;;103.50;55.70;;;;;;;-5.01;60.10;99995.24;447165;1271;129148;-64
2022/03/02 21:48:00;;;;;;;;;;;;;;;-4.87;60.44;99990.55;447023;1271;142738;-65
2022/03/02 21:58:06;;;;;;;111.20;59.60;;;;;;;-4.78;60.41;99991.61;447236;1271;128917;-66
2022/03/02 22:08:10;;;;;;;;;;;;;;;-4.80;60.27;99990.23;441163;1271;153221;-67
2022/03/02 22:18:16;;;;;;;122.60;70.30;;;;;;;-4.92;60.36;99986.59;430949;1271;127682;-68
2022/03/02 22:28:22;;;;;;;129.40;70.00;;;;;;;-5.27;60.51;99976.81;430674;1271;141998;-66
2022/03/02 22:38:28;;;;;;;140.90;73.90;;;;;;;-5.58;60.93;99972.31;437615;1271;143115;-67
2022/03/02 22:48:32;;;;;;;;;;;;;;;-5.85;61.52;99958.77;439013;1271;142467;-67
2022/03/02 22:58:38;;;;;;;139.50;76.30;;;;;;;-6.07;62.14;99950.08;447480;1271;127791;-68
2022/03/02 23:19:08;;;;;;;173.10;92.30;;;;;;;-6.41;62.84;99940.89;447088;1271;142144;-67
2022/03/02 23:29:14;;;;;;;172.00;94.80;;;;;;;-6.53;63.17;99937.36;446913;1273;142463;-68
2022/03/02 23:39:20;;;;;;;189.10;99.70;;;;;;;-6.65;63.65;99934.32;436067;1271;141498;-66
2022/03/02 23:49:26;;;;;;;191.80;108.60;;;;;;;-6.73;64.29;99937.96;433028;1271;141205;-67
2022/03/02 23:59:32;;;;;;;194.00;104.30;;;;;;;-6.71;64.59;99929.13;445891;1271;142710;-67
